Time;durP1;ratioP1;P1;durP2;ratioP2;P2;SDS_P1;SDS_P2;PMS_P1;PMS_P2;Temp;Humidity;BMP_temperature;BMP_pressure;BME280_temperature;BME280_humidity;BME280_pressure;Samples;Min_cycle;Max_cycle;Signal;HPM_P1;HPM_P2
2022/01/25 00:24:22;;;;;;;54.65;35.22;;;5.00;99.90;;;;;;5073366;28;20078;-85
2022/01/25 00:32:10;;;;;;;53.25;33.85;;;5.00;99.90;;;;;;5071744;28;20052;-85
2022/01/25 00:34:35;;;;;;;52.10;34.40;;;5.00;99.90;;;;;;5071949;28;20040;-85
2022/01/25 00:37:01;;;;;;;54.13;34.22;;;5.00;99.90;;;;;;5072642;28;20102;-85
2022/01/25 00:39:27;;;;;;;52.00;33.63;;;5.00;99.90;;;;;;5055331;28;20389;-85
2022/01/25 00:41:52;;;;;;;54.15;33.67;;;5.00;99.90;;;;;;5072703;28;20048;-85
2022/01/25 00:44:18;;;;;;;53.58;34.58;;;5.00;99.90;;;;;;5055285;28;20048;-85
2022/01/25 00:46:43;;;;;;;52.45;33.05;;;5.00;99.90;;;;;;5072793;28;20052;-85
2022/01/25 00:49:11;;;;;;;54.20;35.17;;;4.90;99.90;;;;;;5072350;28;20079;-85
2022/01/25 00:54:29;;;;;;;55.60;33.92;;;5.00;99.90;;;;;;5071828;28;20056;-85
2022/01/25 00:56:55;;;;;;;54.97;34.55;;;5.00;99.90;;;;;;5072587;28;20075;-85
2022/01/25 00:59:26;;;;;;;53.42;34.05;;;4.90;99.90;;;;;;5038506;28;20048;-85
2022/01/25 01:01:52;;;;;;;;;;;5.00;99.90;;;;;;5055040;28;20392;-85
2022/01/25 01:04:18;;;;;;;54.60;33.25;;;4.90;99.90;;;;;;5071358;28;19924;-85
2022/01/25 01:06:45;;;;;;;54.28;34.50;;;4.90;99.90;;;;;;5055087;28;20040;-85
2022/01/25 01:09:12;;;;;;;53.55;34.20;;;4.90;99.90;;;;;;5072012;28;20052;-85
2022/01/25 01:11:45;;;;;;;52.33;33.85;;;4.90;99.90;;;;;;5078543;28;20105;-85
2022/01/25 01:41:20;;;;;;;50.60;33.47;;;4.90;99.90;;;;;;5091570;28;20052;-84
2022/01/25 01:43:52;;;;;;;53.75;34.13;;;4.90;99.90;;;;;;5090784;28;20134;-85
2022/01/25 01:51:26;;;;;;;53.20;34.40;;;4.90;99.90;;;;;;5091832;28;20144;-85
2022/01/25 01:53:53;;;;;;;52.28;33.70;;;4.90;99.90;;;;;;5075751;28;20090;-85
2022/01/25 01:56:18;;;;;;;51.28;33.60;;;4.90;99.90;;;;;;5074111;28;20048;-85
2022/01/25 01:58:44;;;;;;;51.95;34.92;;;4.90;99.90;;;;;;5090936;28;20051;-85
2022/01/25 02:01:12;;;;;;;55.35;34.85;;;4.90;99.90;;;;;;5091551;28;20044;-85
2022/01/25 02:03:38;;;;;;;53.58;36.35;;;4.90;99.90;;;;;;5091094;28;20040;-84
2022/01/25 02:06:04;;;;;;;56.47;36.25;;;4.90;99.90;;;;;;5090290;28;20050;-85
2022/01/25 02:08:29;;;;;;;53.72;36.25;;;4.90;99.90;;;;;;5091013;28;20093;-85
2022/01/25 02:10:55;;;;;;;54.17;35.53;;;5.00;99.90;;;;;;5092169;28;20071;-85
2022/01/25 02:13:20;;;;;;;53.53;35.47;;;4.90;99.90;;;;;;5090607;28;20036;-85
2022/01/25 02:15:48;;;;;;;53.10;34.67;;;4.80;99.90;;;;;;5092174;28;20465;-84
2022/01/25 02:23:43;;;;;;;53.03;35.15;;;4.80;99.90;;;;;;5091064;28;20051;-84
2022/01/25 02:26:09;;;;;;;55.10;36.83;;;4.80;99.90;;;;;;5089132;28;20139;-84
2022/01/25 02:28:37;;;;;;;60.55;37.58;;;4.80;99.90;;;;;;5090333;28;20484;-85
2022/01/25 02:31:03;;;;;;;55.88;37.60;;;4.80;99.90;;;;;;5057033;28;20059;-85
2022/01/25 02:33:29;;;;;;;56.28;37.55;;;4.80;99.90;;;;;;5073991;28;20052;-85
2022/01/25 02:35:54;;;;;;;56.50;37.65;;;4.80;99.90;;;;;;5092817;28;20491;-85
2022/01/25 02:38:25;;;;;;;60.00;38.08;;;4.80;99.90;;;;;;5095397;28;20288;-84
2022/01/25 02:40:51;;;;;;;55.38;36.63;;;4.80;99.90;;;;;;5077818;28;20510;-85
2022/01/25 02:43:18;;;;;;;55.75;38.42;;;4.80;99.90;;;;;;5077036;28;20076;-85
2022/01/25 02:45:48;;;;;;;61.15;39.80;;;4.80;99.90;;;;;;5094353;28;20055;-85
2022/01/25 02:48:29;;;;;;;57.25;38.42;;;4.90;99.90;;;;;;5093992;28;20044;-85
2022/01/25 02:50:55;;;;;;;;;;;4.90;99.90;;;;;;5095052;28;20048;-85
2022/01/25 02:53:20;;;;;;;60.08;38.50;;;4.80;99.90;;;;;;5094969;28;19927;-85
2022/01/25 02:55:46;;;;;;;60.33;39.08;;;4.80;99.90;;;;;;5095404;28;20051;-85
2022/01/25 02:58:12;;;;;;;59.22;38.15;;;4.80;99.90;;;;;;5094783;28;20377;-85
2022/01/25 03:00:37;;;;;;;56.15;38.38;;;4.90;99.90;;;;;;5094497;28;20441;-85
2022/01/25 03:03:03;;;;;;;58.63;38.42;;;4.90;99.90;;;;;;5094084;28;20039;-85
2022/01/25 03:05:29;;;;;;;58.92;38.85;;;4.80;99.90;;;;;;5095351;28;20047;-85
2022/01/25 03:07:56;;;;;;;56.50;38.40;;;4.80;99.90;;;;;;5095177;28;20101;-85
2022/01/25 03:10:21;;;;;;;61.13;41.25;;;4.80;99.90;;;;;;5093458;28;20083;-85
2022/01/25 03:12:52;;;;;;;61.78;40.33;;;4.80;99.90;;;;;;5093464;28;20067;-85
2022/01/25 03:17:53;;;;;;;61.08;40.20;;;4.80;99.90;;;;;;5093738;28;20044;-85
2022/01/25 03:20:22;;;;;;;56.80;38.22;;;4.80;99.90;;;;;;5094563;28;20048;-84
2022/01/25 03:25:20;;;;;;;59.78;39.10;;;4.80;99.90;;;;;;5077120;28;20135;-85
2022/01/25 03:27:46;;;;;;;59.83;39.95;;;4.80;99.90;;;;;;5094347;28;20404;-85
2022/01/25 03:30:12;;;;;;;63.50;39.78;;;4.80;99.90;;;;;;5093215;28;20052;-85
2022/01/25 03:32:37;;;;;;;60.63;40.30;;;4.90;99.90;;;;;;5075493;28;20075;-85
2022/01/25 03:35:03;;;;;;;59.38;40.10;;;4.80;99.90;;;;;;5094017;28;20125;-85
2022/01/25 03:37:29;;;;;;;61.83;40.45;;;4.80;99.90;;;;;;5092296;28;20052;-85
2022/01/25 03:39:54;;;;;;;59.35;40.38;;;4.80;99.90;;;;;;5093463;28;20066;-85
2022/01/25 03:42:20;;;;;;;61.03;40.30;;;4.80;99.90;;;;;;5084931;28;20036;-85
2022/01/25 03:44:46;;;;;;;59.65;39.47;;;4.80;99.90;;;;;;5092910;28;20189;-85
2022/01/25 03:47:16;;;;;;;56.78;38.47;;;4.80;99.90;;;;;;5085787;28;20546;-85
2022/01/25 03:49:52;;;;;;;59.60;40.30;;;4.80;99.90;;;;;;5092468;28;20539;-85
2022/01/25 03:52:35;;;;;;;59.88;39.22;;;4.80;99.90;;;;;;5091463;28;20043;-85
2022/01/25 03:55:00;;;;;;;56.33;38.50;;;4.80;99.90;;;;;;5091703;28;20414;-85
2022/01/25 03:57:26;;;;;;;59.50;39.58;;;4.80;99.90;;;;;;5074491;28;20042;-85
2022/01/25 03:59:53;;;;;;;61.88;40.30;;;4.80;99.90;;;;;;5090007;28;20083;-85
2022/01/25 04:02:18;;;;;;;55.92;37.88;;;4.80;99.90;;;;;;5093351;28;20572;-85
2022/01/25 04:04:46;;;;;;;61.88;39.65;;;4.90;99.90;;;;;;5089740;28;20119;-85
2022/01/25 04:07:13;;;;;;;65.28;41.13;;;4.80;99.90;;;;;;5091090;28;20047;-86
2022/01/25 04:09:39;;;;;;;60.13;39.88;;;4.80;99.90;;;;;;5093773;28;20044;-85
2022/01/25 04:12:05;;;;;;;57.20;39.22;;;4.80;99.90;;;;;;5092649;28;20112;-85
2022/01/25 04:14:31;;;;;;;64.25;40.13;;;4.80;99.90;;;;;;5093679;28;20044;-85
2022/01/25 04:17:06;;;;;;;58.35;38.15;;;4.80;99.90;;;;;;5076245;28;20044;-85
2022/01/25 04:19:43;;;;;;;59.75;39.17;;;4.80;99.90;;;;;;5093821;28;20391;-85
2022/01/25 04:27:24;;;;;;;60.35;39.05;;;4.80;99.90;;;;;;5093482;28;20063;-85
2022/01/25 04:29:50;;;;;;;57.53;38.97;;;4.80;99.90;;;;;;5092795;28;20186;-85
2022/01/25 04:32:16;;;;;;;59.60;40.15;;;4.80;99.90;;;;;;5092505;28;20056;-85
2022/01/25 04:34:46;;;;;;;59.40;37.50;;;4.80;99.90;;;;;;5092597;28;20131;-85
2022/01/25 04:55:59;;;;;;;58.90;39.75;;;4.80;99.90;;;;;;5092675;28;20063;-85
2022/01/25 04:58:33;;;;;;;60.38;38.97;;;4.80;99.90;;;;;;5092025;28;20050;-85
2022/01/25 05:00:59;;;;;;;61.00;38.63;;;4.80;99.90;;;;;;5090509;28;20128;-85
2022/01/25 05:03:32;;;;;;;62.47;40.00;;;4.70;99.90;;;;;;5091873;28;20047;-85
2022/01/25 05:06:05;;;;;;;61.92;39.13;;;4.80;99.90;;;;;;5075530;28;20583;-85
2022/01/25 05:09:07;;;;;;;62.38;39.50;;;4.70;99.90;;;;;;5091004;28;20052;-85
2022/01/25 05:14:08;;;;;;;63.63;39.88;;;4.70;99.90;;;;;;5092824;28;20044;-85
2022/01/25 05:16:38;;;;;;;62.55;39.00;;;4.70;99.90;;;;;;5092334;28;20044;-85
2022/01/25 05:24:15;;;;;;;58.67;37.90;;;4.70;99.90;;;;;;5092707;28;20135;-85
2022/01/25 05:26:40;;;;;;;58.25;38.15;;;4.80;99.90;;;;;;5090737;28;20135;-85
2022/01/25 05:29:07;;;;;;;61.40;39.35;;;4.80;99.90;;;;;;5091291;28;20123;-86
2022/01/25 05:31:33;;;;;;;67.43;38.65;;;4.70;99.90;;;;;;5074436;28;20056;-86
2022/01/25 05:33:58;;;;;;;62.55;38.95;;;4.80;99.90;;;;;;5091164;28;20395;-87
2022/01/25 05:36:25;;;;;;;61.38;37.95;;;4.80;99.90;;;;;;5092045;28;20052;-85
2022/01/25 05:38:50;;;;;;;60.58;39.08;;;4.70;99.90;;;;;;5091438;28;20044;-87
2022/01/25 05:41:16;;;;;;;69.07;41.70;;;4.80;99.90;;;;;;5092410;28;20070;-86
2022/01/25 05:46:37;;;;;;;63.33;41.20;;;4.80;99.90;;;;;;5090855;28;20048;-87
2022/01/25 05:49:03;;;;;;;65.05;39.80;;;4.80;99.90;;;;;;5092424;28;20040;-87
2022/01/25 05:51:31;;;;;;;61.42;40.13;;;4.80;99.90;;;;;;5091890;28;20048;-85
2022/01/25 05:53:56;;;;;;;60.70;38.92;;;4.80;99.90;;;;;;5092455;28;20044;-85
2022/01/25 05:56:22;;;;;;;58.30;38.33;;;4.70;99.90;;;;;;5092361;28;20044;-85
2022/01/25 05:58:48;;;;;;;63.63;39.92;;;4.80;99.90;;;;;;5091283;28;20134;-84
2022/01/25 06:01:13;;;;;;;60.42;38.20;;;4.70;99.90;;;;;;5091940;28;20052;-88
2022/01/25 06:03:41;;;;;;;59.15;38.33;;;4.80;99.90;;;;;;5090567;28;20046;-86
2022/01/25 06:06:07;;;;;;;61.17;38.65;;;4.70;99.90;;;;;;5092386;28;20403;-85
2022/01/25 06:08:33;;;;;;;63.17;39.88;;;4.80;99.90;;;;;;5091445;28;20044;-86
2022/01/25 06:10:58;;;;;;;61.30;39.85;;;4.70;99.90;;;;;;5069974;28;20054;-86
2022/01/25 06:13:24;;;;;;;62.70;38.67;;;4.80;99.90;;;;;;5093209;28;20140;-85
2022/01/25 06:15:50;;;;;;;60.78;38.72;;;4.80;99.90;;;;;;5095341;28;20118;-84
2022/01/25 06:18:15;;;;;;;65.22;40.05;;;4.80;99.90;;;;;;5088930;28;20458;-85
2022/01/25 06:20:41;;;;;;;59.92;38.75;;;4.80;99.90;;;;;;5095070;28;20182;-85
2022/01/25 06:23:06;;;;;;;61.38;39.70;;;4.80;99.90;;;;;;5095483;28;20079;-85
2022/01/25 06:25:34;;;;;;;60.75;38.00;;;4.70;99.90;;;;;;5099816;28;20048;-85
2022/01/25 06:28:00;;;;;;;59.22;38.50;;;4.70;99.90;;;;;;5115790;28;20568;-85
2022/01/25 06:30:25;;;;;;;58.55;37.67;;;4.80;99.90;;;;;;5097822;28;20086;-84
2022/01/25 06:32:51;;;;;;;59.10;38.33;;;4.70;99.90;;;;;;5115691;28;20514;-84
2022/01/25 06:35:17;;;;;;;61.08;39.17;;;4.70;99.90;;;;;;5116048;28;20047;-84
2022/01/25 06:37:43;;;;;;;65.65;40.08;;;4.70;99.90;;;;;;5060467;28;20044;-84
2022/01/25 06:40:10;;;;;;;62.70;39.70;;;4.70;99.90;;;;;;5067609;28;20049;-84
2022/01/25 06:42:36;;;;;;;62.00;40.00;;;4.70;99.90;;;;;;5097614;28;20044;-84
2022/01/25 06:45:07;;;;;;;63.75;40.03;;;4.70;99.90;;;;;;5081355;28;20483;-85
2022/01/25 06:47:33;;;;;;;65.43;40.55;;;4.70;99.90;;;;;;5082138;28;20470;-85
2022/01/25 06:49:58;;;;;;;63.75;39.45;;;4.70;99.90;;;;;;5116342;28;20079;-87
2022/01/25 06:52:24;;;;;;;61.83;38.95;;;4.70;99.90;;;;;;5116249;28;20046;-85
2022/01/25 06:54:50;;;;;;;65.68;39.42;;;4.80;99.90;;;;;;5115733;28;20088;-87
2022/01/25 06:57:15;;;;;;;61.53;37.92;;;4.70;99.90;;;;;;5064730;28;20570;-86
2022/01/25 06:59:41;;;;;;;59.22;38.13;;;4.70;99.90;;;;;;5097238;28;20059;-87
2022/01/25 07:02:07;;;;;;;62.03;39.95;;;4.80;99.90;;;;;;5097521;28;20441;-87
2022/01/25 07:04:32;;;;;;;64.28;39.45;;;4.70;99.90;;;;;;5115718;28;20052;-87
2022/01/25 07:06:58;;;;;;;60.25;38.80;;;4.80;99.90;;;;;;5097080;28;20122;-86
2022/01/25 07:09:24;;;;;;;60.58;38.63;;;4.70;99.90;;;;;;5080784;28;20051;-87
2022/01/25 07:11:49;;;;;;;61.80;38.58;;;4.70;99.90;;;;;;5097165;28;20511;-87
2022/01/25 07:14:15;;;;;;;61.92;40.58;;;4.80;99.90;;;;;;5114802;28;20058;-87
2022/01/25 07:16:40;;;;;;;61.40;38.55;;;4.70;99.90;;;;;;5063192;28;20055;-88
2022/01/25 07:19:06;;;;;;;63.72;40.22;;;4.70;99.90;;;;;;5097301;28;20040;-87
2022/01/25 07:21:32;;;;;;;63.17;39.85;;;4.80;99.90;;;;;;5115281;28;20126;-87
2022/01/25 07:23:57;;;;;;;60.65;38.17;;;4.80;99.90;;;;;;5095916;28;20519;-86
2022/01/25 07:26:23;;;;;;;63.75;39.13;;;4.80;99.90;;;;;;5097070;28;20051;-86
2022/01/25 07:28:49;;;;;;;63.55;39.38;;;4.80;99.90;;;;;;5063114;28;20055;-87
2022/01/25 07:31:15;;;;;;;58.58;37.83;;;4.80;99.90;;;;;;5080322;28;20373;-87
2022/01/25 07:33:41;;;;;;;63.70;40.30;;;4.80;99.90;;;;;;5096727;28;20135;-87
2022/01/25 07:36:06;;;;;;;63.55;39.95;;;4.80;99.90;;;;;;5080164;28;20052;-87
2022/01/25 07:38:32;;;;;;;64.22;38.58;;;4.80;99.90;;;;;;5079898;28;20050;-87
2022/01/25 07:40:58;;;;;;;65.10;39.85;;;4.80;99.90;;;;;;5079440;28;20388;-87
2022/01/25 07:43:23;;;;;;;61.95;37.88;;;4.70;99.90;;;;;;5096803;28;20075;-87
2022/01/25 07:45:53;;;;;;;61.97;39.30;;;4.80;99.90;;;;;;5079471;28;20120;-87
2022/01/25 07:48:19;;;;;;;65.55;39.38;;;4.80;99.90;;;;;;5097301;28;20501;-87
2022/01/25 07:50:45;;;;;;;64.53;38.95;;;4.80;99.90;;;;;;5095971;28;20055;-89
2022/01/25 07:53:10;;;;;;;63.17;37.75;;;4.80;99.90;;;;;;5075159;28;20097;-87
2022/01/25 07:55:36;;;;;;;64.72;38.45;;;4.80;99.90;;;;;;5063287;28;20090;-87
2022/01/25 07:58:02;;;;;;;65.07;39.55;;;4.80;99.90;;;;;;5079602;28;20043;-87
2022/01/25 08:00:30;;;;;;;59.90;38.88;;;4.80;99.90;;;;;;5096620;28;20062;-88
2022/01/25 08:02:56;;;;;;;60.03;38.13;;;4.80;99.90;;;;;;5096597;28;20036;-81
2022/01/25 08:05:24;;;;;;;63.13;39.58;;;4.80;99.90;;;;;;5096751;28;20418;-82
2022/01/25 08:07:49;;;;;;;59.30;38.25;;;4.80;99.90;;;;;;5096318;28;20055;-82
2022/01/25 08:10:15;;;;;;;62.05;37.92;;;4.80;99.90;;;;;;5079371;28;20047;-84
2022/01/25 08:12:41;;;;;;;60.13;37.88;;;4.80;99.90;;;;;;5114550;28;20061;-85
2022/01/25 08:15:07;;;;;;;65.15;39.55;;;4.80;99.90;;;;;;5095192;28;20043;-86
2022/01/25 08:17:33;;;;;;;59.65;37.92;;;4.80;99.90;;;;;;5095692;28;20116;-85
2022/01/25 08:19:58;;;;;;;64.03;38.83;;;4.80;99.90;;;;;;5062439;28;20039;-85
2022/01/25 08:22:24;;;;;;;58.10;37.70;;;4.80;99.90;;;;;;5114231;28;20047;-84
2022/01/25 08:24:51;;;;;;;64.85;39.65;;;4.80;99.90;;;;;;5078866;28;20130;-84
2022/01/25 08:27:24;;;;;;;64.80;39.70;;;4.90;99.90;;;;;;5091869;28;20143;-84
2022/01/25 08:29:53;;;;;;;64.18;40.00;;;4.90;99.90;;;;;;5097578;28;20047;-84
2022/01/25 08:32:19;;;;;;;65.43;39.65;;;4.80;99.90;;;;;;5079463;28;20103;-84
2022/01/25 08:34:45;;;;;;;65.45;40.05;;;4.90;99.90;;;;;;5112818;28;20047;-85
2022/01/25 08:37:11;;;;;;;62.40;37.63;;;4.90;99.90;;;;;;5095744;28;20108;-84
2022/01/25 08:39:37;;;;;;;64.95;38.70;;;4.80;99.90;;;;;;5112740;28;20039;-85
2022/01/25 08:42:03;;;;;;;59.50;38.17;;;4.80;99.90;;;;;;5095360;28;20044;-86
2022/01/25 08:44:29;;;;;;;62.50;38.05;;;4.90;99.90;;;;;;5112923;28;20181;-88
2022/01/25 08:46:55;;;;;;;61.38;38.78;;;4.90;99.90;;;;;;5112874;28;20126;-85
2022/01/25 08:49:21;;;;;;;65.75;38.55;;;4.90;99.90;;;;;;5114086;28;20050;-85
2022/01/25 08:51:48;;;;;;;62.28;38.60;;;4.90;99.90;;;;;;5095632;28;20058;-86
2022/01/25 08:54:17;;;;;;;63.65;39.28;;;4.90;99.90;;;;;;5112478;28;20047;-86
2022/01/25 08:56:43;;;;;;;60.25;38.05;;;5.00;99.90;;;;;;5079101;28;20043;-84
2022/01/25 08:59:09;;;;;;;65.50;39.55;;;5.00;99.90;;;;;;5095101;28;20511;-86
2022/01/25 09:01:35;;;;;;;60.85;37.22;;;5.00;99.90;;;;;;5095731;28;20055;-86
2022/01/25 09:04:03;;;;;;;65.85;39.70;;;5.00;99.90;;;;;;5112255;28;20050;-85
2022/01/25 09:06:29;;;;;;;63.53;37.60;;;5.00;99.90;;;;;;5096321;28;20123;-86
2022/01/25 09:09:04;;;;;;;62.42;37.75;;;5.00;99.90;;;;;;5112007;28;20492;-87
2022/01/25 09:11:30;;;;;;;63.95;39.08;;;5.10;99.90;;;;;;5112264;28;20453;-88
2022/01/25 09:13:56;;;;;;;58.33;37.75;;;5.00;99.90;;;;;;5112309;28;20047;-87
2022/01/25 09:16:21;;;;;;;62.42;37.63;;;5.00;99.90;;;;;;5095210;28;20040;-87
2022/01/25 09:18:47;;;;;;;61.53;37.45;;;5.00;99.90;;;;;;5113191;28;20111;-87
2022/01/25 09:21:13;;;;;;;61.90;38.38;;;5.00;99.90;;;;;;5112609;28;20126;-89
2022/01/25 09:23:38;;;;;;;60.35;37.97;;;5.00;99.90;;;;;;5114503;28;20482;-87
2022/01/25 09:26:04;;;;;;;64.15;38.80;;;5.00;99.90;;;;;;5062220;28;20139;-87
2022/01/25 09:28:30;;;;;;;60.60;38.33;;;5.10;99.90;;;;;;5098113;28;20130;-86
2022/01/25 09:30:56;;;;;;;60.80;37.88;;;5.10;99.90;;;;;;5095701;28;20044;-87
2022/01/25 09:33:22;;;;;;;61.85;39.20;;;5.10;99.90;;;;;;5095278;28;20470;-86
2022/01/25 09:35:49;;;;;;;61.53;38.97;;;5.10;99.90;;;;;;5095911;28;20051;-85
2022/01/25 09:38:14;;;;;;;61.50;37.58;;;5.10;99.90;;;;;;5112854;28;20083;-86
2022/01/25 09:40:40;;;;;;;61.53;38.78;;;5.10;99.90;;;;;;5113600;28;20183;-85
2022/01/25 09:43:07;;;;;;;63.00;38.58;;;5.10;99.90;;;;;;5096403;28;20391;-89
2022/01/25 09:45:33;;;;;;;68.40;40.00;;;5.20;99.90;;;;;;5096368;28;20088;-90
2022/01/25 09:47:58;;;;;;;64.25;39.03;;;5.10;99.90;;;;;;5079059;28;20421;-86
2022/01/25 09:50:24;;;;;;;62.95;38.35;;;5.10;99.90;;;;;;5114153;28;20048;-86
2022/01/25 09:52:50;;;;;;;64.25;39.80;;;5.10;99.90;;;;;;5103553;28;20039;-87
2022/01/25 09:55:21;;;;;;;63.35;39.15;;;5.10;99.90;;;;;;5086936;28;20046;-87
2022/01/25 09:57:46;;;;;;;66.68;39.90;;;5.20;99.90;;;;;;5059666;28;20075;-86
2022/01/25 10:00:14;;;;;;;61.42;38.92;;;5.20;99.90;;;;;;5105894;28;20079;-86
2022/01/25 10:02:49;;;;;;;62.78;40.03;;;5.20;99.90;;;;;;5061402;28;20105;-86
2022/01/25 10:05:36;;;;;;;63.00;38.58;;;5.20;99.90;;;;;;5108484;28;20076;-86
2022/01/25 10:08:06;;;;;;;66.90;38.55;;;5.20;99.90;;;;;;5072228;28;20040;-86
2022/01/25 10:10:34;;;;;;;63.17;39.10;;;5.20;99.90;;;;;;5092004;28;20434;-86
2022/01/25 10:13:23;;;;;;;64.68;38.97;;;5.20;99.90;;;;;;5112311;28;20039;-87
2022/01/25 10:15:59;;;;;;;62.30;37.95;;;5.20;99.90;;;;;;5087316;28;20109;-86
2022/01/25 10:19:02;;;;;;;65.68;38.45;;;5.20;99.90;;;;;;5092684;28;20039;-86
2022/01/25 10:21:42;;;;;;;60.10;39.03;;;5.20;99.90;;;;;;5073138;28;20051;-86
2022/01/25 10:24:15;;;;;;;65.70;39.78;;;5.20;99.90;;;;;;5045477;28;20055;-86
2022/01/25 10:26:51;;;;;;;69.55;40.75;;;5.30;99.90;;;;;;5073931;28;20067;-86
2022/01/25 10:29:25;;;;;;;63.80;39.47;;;5.30;99.90;;;;;;5058874;28;20400;-86
2022/01/25 10:31:59;;;;;;;65.65;38.63;;;5.30;99.90;;;;;;5075323;28;20091;-86
2022/01/25 10:34:30;;;;;;;63.17;38.65;;;5.30;99.90;;;;;;5091403;28;20048;-86
2022/01/25 10:36:57;;;;;;;64.63;38.70;;;5.30;99.90;;;;;;5091365;28;20044;-86
2022/01/25 10:39:27;;;;;;;72.05;40.13;;;5.30;99.90;;;;;;5090992;28;20101;-86
2022/01/25 10:42:26;;;;;;;64.80;39.58;;;5.30;99.90;;;;;;5091016;28;20056;-86
2022/01/25 10:45:05;;;;;;;67.22;39.78;;;5.30;99.90;;;;;;5051010;28;20087;-86
2022/01/25 10:47:44;;;;;;;69.57;39.75;;;5.30;99.90;;;;;;5091279;28;20075;-85
2022/01/25 10:50:20;;;;;;;67.93;38.63;;;5.40;99.90;;;;;;5091134;28;20381;-86
2022/01/25 10:52:46;;;;;;;65.15;39.53;;;5.30;99.90;;;;;;5074835;28;20059;-86
2022/01/25 10:55:12;;;;;;;67.47;38.80;;;5.30;99.90;;;;;;5090765;28;20040;-86
2022/01/25 10:57:38;;;;;;;66.85;39.28;;;5.40;99.90;;;;;;5074912;28;20048;-86
2022/01/25 11:00:09;;;;;;;67.03;39.60;;;5.40;99.90;;;;;;5077106;28;20487;-87
2022/01/25 11:02:35;;;;;;;67.63;40.00;;;5.40;99.90;;;;;;5078488;28;20036;-86
2022/01/25 11:05:08;;;;;;;63.03;38.72;;;5.40;99.90;;;;;;5094501;28;20040;-87
2022/01/25 11:07:44;;;;;;;68.05;40.20;;;5.40;99.90;;;;;;5077804;28;20044;-87
2022/01/25 11:10:14;;;;;;;62.67;38.08;;;5.40;99.90;;;;;;5077793;28;20071;-86
2022/01/25 11:12:46;;;;;;;67.05;40.38;;;5.40;99.90;;;;;;5094502;28;20062;-87
2022/01/25 11:15:12;;;;;;;72.43;40.22;;;5.40;99.90;;;;;;5062672;28;20094;-86
2022/01/25 11:17:39;;;;;;;64.68;40.00;;;5.40;99.90;;;;;;5060904;28;20048;-86
2022/01/25 11:20:06;;;;;;;64.28;39.08;;;5.40;99.90;;;;;;5095737;28;20044;-86
2022/01/25 11:22:32;;;;;;;64.10;38.80;;;5.50;99.90;;;;;;5077396;28;20040;-86
2022/01/25 11:25:03;;;;;;;63.20;39.65;;;5.40;99.90;;;;;;5094300;28;20048;-86
2022/01/25 11:27:29;;;;;;;63.97;39.33;;;5.40;99.90;;;;;;5077616;28;20056;-93
2022/01/25 11:30:16;;;;;;;63.20;38.22;;;5.50;99.90;;;;;;5076825;28;20096;-86
2022/01/25 11:32:43;;;;;;;64.90;38.80;;;5.40;99.90;;;;;;5094628;28;20400;-87
2022/01/25 11:35:10;;;;;;;62.53;39.15;;;5.40;99.90;;;;;;5076404;28;20054;-86
2022/01/25 11:37:44;;;;;;;61.22;38.28;;;5.40;99.90;;;;;;5076481;28;20139;-86
2022/01/25 11:40:39;;;;;;;65.45;39.85;;;5.50;99.90;;;;;;5076408;28;20052;-86
2022/01/25 11:43:08;;;;;;;67.28;39.65;;;5.50;99.90;;;;;;5092441;28;20426;-86
2022/01/25 11:45:38;;;;;;;70.00;39.95;;;5.50;99.90;;;;;;5076064;28;20047;-86
2022/01/25 11:48:04;;;;;;;64.18;37.95;;;5.50;99.90;;;;;;5094921;28;20500;-86
2022/01/25 11:50:38;;;;;;;61.03;39.25;;;5.50;99.90;;;;;;5076435;28;20056;-86
2022/01/25 11:53:12;;;;;;;61.03;37.72;;;5.50;99.90;;;;;;5076719;28;20040;-86
2022/01/25 11:55:38;;;;;;;67.72;39.00;;;5.50;99.90;;;;;;5093603;28;20415;-83
2022/01/25 11:58:06;;;;;;;68.07;39.75;;;5.50;99.90;;;;;;5093490;28;20441;-86
2022/01/25 12:00:41;;;;;;;64.32;37.75;;;5.50;99.90;;;;;;5092939;28;20505;-86
2022/01/25 12:03:28;;;;;;;64.63;39.00;;;5.50;99.90;;;;;;5077331;28;20387;-85
2022/01/25 12:06:03;;;;;;;65.60;38.75;;;5.50;99.90;;;;;;5093607;28;20044;-86
2022/01/25 12:11:48;;;;;;;67.55;39.13;;;5.50;99.90;;;;;;5051418;28;20131;-84
2022/01/25 12:14:27;;;;;;;64.10;38.53;;;5.50;99.90;;;;;;5076074;28;20040;-85
2022/01/25 12:17:19;;;;;;;67.65;39.47;;;5.50;99.90;;;;;;5093309;28;20055;-86
2022/01/25 12:19:57;;;;;;;64.43;36.95;;;5.60;99.90;;;;;;5089805;28;20048;-86
2022/01/25 12:22:26;;;;;;;64.50;38.80;;;5.50;99.90;;;;;;5072909;28;20047;-87
2022/01/25 12:25:20;;;;;;;66.25;39.40;;;5.50;99.90;;;;;;5092771;28;20079;-86
2022/01/25 12:27:56;;;;;;;64.85;37.20;;;5.50;99.90;;;;;;5090704;28;20056;-86
2022/01/25 12:30:38;;;;;;;66.05;38.28;;;5.50;99.90;;;;;;5089088;28;20130;-86
2022/01/25 12:33:04;;;;;;;68.30;39.80;;;5.50;99.90;;;;;;5065392;28;20043;-85
2022/01/25 12:35:32;;;;;;;66.40;37.97;;;5.50;99.90;;;;;;5103341;28;20472;-86
2022/01/25 12:37:59;;;;;;;65.20;38.45;;;5.50;99.90;;;;;;5088627;28;20055;-85
2022/01/25 12:40:25;;;;;;;67.65;37.83;;;5.50;99.90;;;;;;5073039;28;20041;-85
2022/01/25 12:42:55;;;;;;;66.15;38.72;;;5.50;99.90;;;;;;5062620;28;20074;-86
2022/01/25 12:45:22;;;;;;;69.50;39.80;;;5.50;99.90;;;;;;5104347;28;20059;-85
2022/01/25 12:47:55;;;;;;;67.80;38.47;;;5.50;99.90;;;;;;5086860;28;20055;-85
2022/01/25 12:50:21;;;;;;;67.82;38.42;;;5.50;99.90;;;;;;5095661;28;20052;-86
2022/01/25 12:52:46;;;;;;;64.82;38.95;;;5.40;99.90;;;;;;5059128;28;20044;-85
2022/01/25 12:55:13;;;;;;;67.90;40.33;;;5.50;99.90;;;;;;5075520;28;20135;-83
2022/01/25 12:57:45;;;;;;;68.70;40.50;;;5.50;99.90;;;;;;5092223;28;20460;-85
2022/01/25 13:00:12;;;;;;;70.95;39.67;;;5.50;99.90;;;;;;5075507;28;20044;-85
2022/01/25 13:02:38;;;;;;;67.05;39.33;;;5.50;99.90;;;;;;5075567;28;20426;-88
2022/01/25 13:05:18;;;;;;;65.38;37.97;;;5.60;99.90;;;;;;5091897;28;20051;-86
2022/01/25 13:07:43;;;;;;;67.55;39.38;;;5.50;99.90;;;;;;5066467;28;20461;-86
2022/01/25 13:10:11;;;;;;;69.35;39.15;;;5.50;99.90;;;;;;5055155;28;20083;-85
2022/01/25 13:12:54;;;;;;;67.80;38.30;;;5.50;99.90;;;;;;5071206;28;20059;-86
2022/01/25 13:15:39;;;;;;;69.95;40.15;;;5.60;99.90;;;;;;5042981;28;20149;-90
2022/01/25 13:18:12;;;;;;;68.78;39.22;;;5.50;99.90;;;;;;5071730;28;20052;-85
2022/01/25 13:20:39;;;;;;;68.57;39.30;;;5.50;99.90;;;;;;5037585;28;20056;-86
2022/01/25 13:23:05;;;;;;;67.13;38.78;;;5.50;99.90;;;;;;5054985;28;20041;-85
2022/01/25 13:25:44;;;;;;;64.95;38.70;;;5.50;99.90;;;;;;5038302;28;20062;-86
2022/01/25 13:28:22;;;;;;;64.15;38.88;;;5.50;99.90;;;;;;5040343;28;20052;-86
2022/01/25 13:30:49;;;;;;;68.10;39.83;;;5.60;99.90;;;;;;5023483;28;20048;-81
2022/01/25 13:33:17;;;;;;;64.63;38.83;;;5.50;99.90;;;;;;5072760;28;20477;-82
2022/01/25 13:35:48;;;;;;;68.10;40.28;;;5.50;99.90;;;;;;5054508;28;20056;-82
2022/01/25 13:38:18;;;;;;;70.00;39.67;;;5.50;99.90;;;;;;5039785;28;20088;-81
2022/01/25 13:45:59;;;;;;;70.03;39.53;;;5.50;99.90;;;;;;5023487;28;20067;-84
2022/01/25 13:48:29;;;;;;;68.78;40.38;;;5.50;99.90;;;;;;5054933;28;20049;-85
2022/01/25 13:50:59;;;;;;;71.93;39.10;;;5.40;99.90;;;;;;5037294;28;20045;-85
2022/01/25 13:53:26;;;;;;;67.15;39.13;;;5.40;99.90;;;;;;5038370;28;20106;-86
2022/01/25 13:55:53;;;;;;;64.35;38.50;;;5.40;99.90;;;;;;5054833;28;20049;-84
2022/01/25 13:58:22;;;;;;;72.82;40.05;;;5.40;99.90;;;;;;5038185;28;20084;-84
2022/01/25 14:00:48;;;;;;;68.30;39.72;;;5.40;99.90;;;;;;5037743;28;20480;-84
2022/01/25 14:03:15;;;;;;;70.43;39.22;;;5.40;99.90;;;;;;5037982;28;20048;-85
2022/01/25 14:05:41;;;;;;;70.57;40.35;;;5.40;99.90;;;;;;5038066;28;20067;-85
2022/01/25 14:08:06;;;;;;;69.57;39.92;;;5.40;99.90;;;;;;5054550;28;20393;-85
2022/01/25 14:10:32;;;;;;;73.57;42.55;;;5.40;99.90;;;;;;5071972;28;20047;-85
2022/01/25 14:23:56;;;;;;;72.57;37.90;;;5.40;99.90;;;;;;5039988;28;20044;-84
2022/01/25 14:26:27;;;;;;;70.95;37.65;;;5.40;99.90;;;;;;5056511;28;20065;-82
2022/01/25 14:29:07;;;;;;;70.13;38.55;;;5.30;99.90;;;;;;5070534;28;20113;-85
2022/01/25 14:31:39;;;;;;;71.95;38.35;;;5.30;99.90;;;;;;5071083;28;20040;-85
2022/01/25 14:34:07;;;;;;;68.90;38.08;;;5.30;99.90;;;;;;5058460;28;20048;-86
2022/01/25 14:36:33;;;;;;;70.93;38.13;;;5.30;99.90;;;;;;5075302;28;20370;-86
2022/01/25 14:38:59;;;;;;;67.40;38.78;;;5.30;99.90;;;;;;5057683;28;20055;-85
2022/01/25 14:41:28;;;;;;;69.57;38.33;;;5.20;99.90;;;;;;5057695;28;20056;-85
2022/01/25 14:44:03;;;;;;;76.82;39.92;;;5.20;99.90;;;;;;5057684;28;20494;-86
2022/01/25 14:46:46;;;;;;;70.20;39.22;;;5.20;99.90;;;;;;5059561;28;20115;-84
2022/01/25 14:49:17;;;;;;;72.43;39.67;;;5.20;99.90;;;;;;5094334;28;20117;-86
2022/01/25 14:51:53;;;;;;;;;;;5.20;99.90;;;;;;5095186;28;20146;-86
2022/01/25 14:54:20;;;;;;;72.93;39.38;;;5.20;99.90;;;;;;5078085;28;19920;-86